Latest Coastal Weather Observations for Cape Naturaliste

IDW60701

Issued at 12:25 pm WST Wednesday 24 September 2014 (issued every 10 minutes, with the page automatically refreshed every 10 minutes)

About coastal observations | Map of coastal stations | Coastal observations for WA | Marine services | Other Formats
Station Details ID: 009519 Name: CAPE NATURALISTE Lat: -33.54 Lon: 115.02 Height: 109.0 m
Data from the previous 72 hours. | See also: Recent months at Cape Naturaliste
Date/Time
WST
Temp

°C
Wind Pressure Rain
since 9am
mm
Weather Cloud Vis
km
Sea
Height
m
Swell
Dir
 
Speed
knots
Gust
knots
hPa Trend Height
m
Period
s
Dir
24/12:00pm 15.1 W 10 12 1023.5 - 3.4 Rain - - - - - -
24/11:30am 14.5 WNW 11 17 1024.0 - 3.2 - - - - - - -
24/11:00am 15.8 NW 6 9 1024.1 - 2.6 - - - - - - -
24/10:30am 14.8 W 6 8 1024.3 - 2.2 - - - - - - -
24/10:00am 14.7 W 6 8 1024.6 - 0.6 - - - - - - -
24/09:30am 15.1 N 6 9 1024.6 - 0.4 - - - - - - -
24/09:00am 14.2 WNW 7 9 1024.8 - 1.8 Rain - - - - - -
24/08:30am 14.0 WNW 6 7 1024.6 - 0.8 - - - - - - -
24/08:00am 14.0 N 6 8 1024.4 - 0.8 - - - - - - -
24/07:30am 13.9 WNW 4 5 1024.4 - 0.4 - - - - - - -
24/07:00am 13.8 W 5 6 1024.3 - 0.0 - - - - - - -
24/06:30am 13.7 W 5 7 1024.1 - 0.0 - - - - - - -
24/06:00am 13.6 W 6 8 1024.0 - 0.0 - - - - - - -
24/05:30am 13.4 W 7 8 1023.7 - 0.0 - - - - - - -
24/05:00am 13.0 WSW 8 10 1023.7 - 0.0 - - - - - - -
24/04:30am 12.6 W 7 8 1023.6 - 0.0 - - - - - - -
24/04:00am 12.7 W 6 8 1023.7 - 0.0 - - - - - - -
24/03:30am 12.5 W 6 8 1023.9 - 0.0 - - - - - - -
24/03:00am 12.4 W 8 11 1024.1 - 0.0 - - - - - - -
24/02:30am 12.6 W 6 8 1024.2 - 0.0 - - - - - - -
24/02:00am 12.0 W 7 9 1024.5 - 0.0 - - - - - - -
24/01:30am 11.9 WNW 7 9 1024.7 - 0.0 - - - - - - -
24/01:00am 11.9 WNW 6 7 1025.1 - 0.0 - - - - - - -
24/12:30am 12.3 WNW 4 6 1025.4 - 0.0 - - - - - - -
24/12:00am 12.2 WNW 4 6 1025.6 - 0.0 - - - - - - -
 
Date/Time
WST
Temp

°C
Wind Pressure Rain
since 9am
mm
Weather Cloud Vis
km
Sea
Height
m
Swell
Dir
 
Speed
knots
Gust
knots
hPa Trend Height
m
Period
s
Dir
23/11:30pm 12.3 N 4 5 1025.6 - 0.0 - - - - - - -
23/11:00pm 12.5 NNW 5 6 1025.8 - 0.0 - - - - - - -
23/10:30pm 13.0 WNW 8 10 1026.0 - 0.0 - - - - - - -
23/10:00pm 13.8 WNW 6 8 1026.1 - 0.0 - - - - - - -
23/09:30pm 13.9 WSW 9 11 1026.4 - 0.0 - - - - - - -
23/09:00pm 13.4 WSW 8 11 1026.5 - 0.0 - - - - - - -
23/08:30pm 13.8 WSW 7 9 1026.3 - 0.0 - - - - - - -
23/08:00pm 13.9 W 8 12 1026.1 - 0.0 - - - - - - -
23/07:30pm 13.8 WSW 6 8 1025.8 - 0.0 - - - - - - -
23/07:00pm 13.7 SW 6 9 1025.6 - 0.0 - - - - - - -
23/06:30pm 13.4 SSW 4 6 1025.2 - 0.0 - - - - - - -
23/06:00pm 13.8 WSW 7 9 1025.2 - 0.0 - - - - - - -
23/05:30pm 14.1 W 8 12 1025.2 - 0.0 - - - - - - -
23/05:00pm 14.3 W 7 10 1024.9 - 0.0 - - - - - - -
23/04:30pm 14.8 W 6 8 1024.9 - 0.0 - - - - - - -
23/04:00pm 14.7 W 6 10 1024.8 - 0.0 - - - - - - -
23/03:30pm 14.4 W 5 8 1024.8 - 0.0 - - - - - - -
23/03:00pm 14.7 W 7 10 1025.1 - 0.0 - - - - - - -
23/02:30pm 14.2 WSW 8 12 1025.3 - 0.0 - - - - - - -
23/02:00pm 14.3 WSW 7 10 1025.3 - 0.0 - - - - - - -
23/01:30pm 15.2 WSW 7 10 1025.5 - 0.0 - - - - - - -
23/01:00pm 15.2 W 8 11 1025.7 - 0.0 - - - - - - -
23/12:30pm 15.0 W 8 11 1025.8 - 0.0 - - - - - - -
23/12:00pm 15.3 W 7 11 1026.2 - 0.0 - - - - - - -
23/11:30am 14.8 WSW 8 11 1026.3 - 0.0 - - - - - - -
23/11:00am 14.4 WSW 7 10 1026.5 - 0.0 - - - - - - -
23/10:30am 14.4 W 7 9 1026.4 - 0.0 - - - - - - -
23/10:00am 14.5 WSW 7 9 1026.4 - 0.0 - - - - - - -
23/09:30am 13.8 WSW 7 10 1026.5 - 0.0 - - - - - - -
23/09:00am 13.3 SW 7 11 1026.6 - 1.0 - - - - - - -
23/08:30am 13.0 WSW 10 15 1026.6 - 1.0 - - - - - - -
23/08:00am 12.9 SW 10 14 1026.3 - 1.0 - - - - - - -
23/07:30am 12.8 SW 10 14 1026.2 - 1.0 - - - - - - -
23/07:00am 12.7 WSW 11 16 1026.0 - 1.0 - - - - - - -
23/06:30am 12.6 WSW 9 14 1025.8 - 1.0 - - - - - - -
23/06:00am 12.5 WSW 9 15 1025.7 - 1.0 - - - - - - -
23/05:30am 12.5 SW 9 15 1025.4 - 1.0 - - - - - - -
23/05:00am 12.4 SW 8 13 1025.3 - 1.0 - - - - - - -
23/04:30am 12.3 SW 7 12 1025.0 - 1.0 - - - - - - -
23/04:00am 12.4 SW 9 12 1024.9 - 1.0 - - - - - - -
23/03:30am 12.3 SW 7 9 1024.9 - 1.0 - - - - - - -
23/03:00am 12.4 SW 10 13 1024.9 - 1.0 - - - - - - -
23/02:30am 12.6 SW 11 15 1024.9 - 1.0 - - - - - - -
23/02:00am 12.5 SSW 7 11 1025.2 - 1.0 - - - - - - -
23/01:30am 12.5 WSW 10 15 1025.4 - 1.0 - - - - - - -
23/01:00am 12.7 SW 11 15 1025.6 - 1.0 - - - - - - -
23/12:30am 12.2 SSW 8 11 1025.7 - 1.0 - - - - - - -
23/12:00am 12.3 SSW 9 11 1025.8 - 1.0 - - - - - - -
 
Date/Time
WST
Temp

°C
Wind Pressure Rain
since 9am
mm
Weather Cloud Vis
km
Sea
Height
m
Swell
Dir
 
Speed
knots
Gust
knots
hPa Trend Height
m
Period
s
Dir
22/11:30pm 12.3 SSW 9 13 1025.8 - 1.0 - - - - - - -
22/11:00pm 11.9 SSW 8 11 1025.7 - 1.0 - - - - - - -
22/10:30pm 11.4 SSE 8 11 1026.1 - 1.0 - - - - - - -
22/10:00pm 11.4 S 7 9 1026.3 - 1.0 - - - - - - -
22/09:30pm 11.3 S 9 12 1026.3 - 1.0 - - - - - - -
22/09:00pm 11.1 SSE 8 10 1026.2 - 1.0 - - - - - - -
22/08:30pm 11.4 S 9 13 1026.2 - 1.0 - - - - - - -
22/08:00pm 11.3 S 9 13 1025.9 - 1.0 - - - - - - -
22/07:30pm 11.6 S 10 14 1025.5 - 1.0 - - - - - - -
22/07:00pm 11.7 S 10 16 1025.2 - 1.0 - - - - - - -
22/06:30pm 12.4 S 14 19 1025.0 - 1.0 - - - - - - -
22/06:00pm 12.5 SSW 14 19 1024.5 - 1.0 - - - - - - -
22/05:30pm 12.8 SSW 15 20 1024.2 - 1.0 - - - - - - -
22/05:00pm 13.7 SSW 13 19 1024.0 - 1.0 - - - - - - -
22/04:30pm 14.7 SSW 15 22 1023.7 - 1.0 - - - - - - -
22/04:00pm 14.1 SSW 15 21 1023.5 - 1.0 - - - - - - -
22/03:30pm 15.1 SSW 14 20 1023.2 - 1.0 - - - - - - -
22/03:00pm 15.8 SSW 16 23 1023.0 - 1.0 - - - - - - -
22/02:30pm 15.8 SSW 17 23 1022.9 - 1.0 - - - - - - -
22/02:00pm 15.7 SSW 16 22 1022.7 - 1.0 - - - - - - -
22/01:30pm 16.3 SSW 16 23 1022.6 - 1.0 - - - - - - -
22/01:00pm 16.2 SSW 18 26 1022.7 - 1.0 - - - - - - -
22/12:30pm 14.4 SSW 17 23 1022.8 - 1.0 - - - - - - -
22/12:00pm 15.0 S 14 21 1022.6 - 1.0 Recent precip. - - - - - -
22/11:30am 13.7 S 17 25 1022.8 - 1.0 - - - - - - -
22/11:00am 11.0 S 17 22 1023.1 - 0.8 - - - - - - -
22/10:30am 14.2 SSE 9 14 1022.9 - 0.0 - - - - - - -
22/10:00am 12.5 S 10 14 1022.9 - 0.0 - - - - - - -
22/09:30am 12.6 S 11 15 1022.9 - 0.0 - - - - - - -
22/09:00am 13.2 S 13 20 1022.5 - 17.8 - - - - - - -
22/08:30am 11.8 SSE 8 12 1022.1 - 17.8 - - - - - - -
22/08:00am 12.3 SSE 13 18 1021.7 - 17.8 - - - - - - -
22/07:30am 12.0 S 13 19 1020.8 - 17.8 - - - - - - -
22/07:00am 10.1 S 15 19 1020.4 - 17.8 - - - - - - -
22/06:30am 9.6 S 12 16 1019.8 - 17.8 - - - - - - -
22/06:00am 9.6 S 12 16 1019.2 - 17.8 - - - - - - -
22/05:30am 9.4 S 13 16 1018.9 - 17.8 - - - - - - -
22/05:00am 9.0 S 12 16 1018.4 - 17.8 - - - - - - -
22/04:30am 9.4 S 15 19 1017.9 - 17.8 - - - - - - -
22/04:00am 9.6 S 16 21 1017.5 - 17.8 - - - - - - -
22/03:30am 10.1 S 17 25 1017.4 - 17.8 - - - - - - -
22/03:17am 10.7 S 18 28 1017.0 - 17.8 - - - - - - -
22/03:00am 11.5 S 21 26 1016.8 - 17.8 - - - - - - -
22/02:39am 12.2 SSW 19 29 1016.5 - 17.8 - - - - - - -
22/02:30am 12.1 SSW 19 25 1016.5 - 17.8 - - - - - - -
22/02:00am 11.9 SSW 20 28 1016.3 - 17.8 - - - - - - -
22/01:42am 11.9 SSW 18 28 1016.3 - 17.8 - - - - - - -
22/01:30am 11.8 SSW 17 26 1016.2 - 17.8 - - - - - - -
22/01:06am 10.8 SSW 24 34 1016.3 - 17.8 - - - - - - -
22/01:00am 11.1 SSW 27 34 1016.1 - 17.8 - - - - - - -
22/12:46am 10.9 S 16 30 1016.1 - 17.8 - - - - - - -
22/12:30am 10.5 S 15 22 1016.2 - 17.8 - - - - - - -
22/12:00am 9.5 S 15 21 1016.0 - 17.8 Recent precip. - - - - - -
 
Date/Time
WST
Temp

°C
Wind Pressure Rain
since 9am
mm
Weather Cloud Vis
km
Sea
Height
m
Swell
Dir
 
Speed
knots
Gust
knots
hPa Trend Height
m
Period
s
Dir
21/11:30pm 9.9 S 21 29 1015.7 - 17.8 - - - - - - -
21/11:01pm 10.8 S 19 29 1015.4 - 17.4 - - - - - - -
21/11:00pm 10.9 S 20 29 1015.4 - 17.4 - - - - - - -
21/10:47pm 11.9 S 18 28 1015.4 - 17.4 - - - - - - -
21/10:30pm 11.5 S 19 24 1015.2 - 17.4 - - - - - - -
21/10:00pm 11.2 S 18 24 1015.0 - 17.4 - - - - - - -
21/09:30pm 11.8 S 18 28 1015.1 - 17.4 - - - - - - -
21/09:12pm 12.0 S 20 30 1014.5 - 17.4 - - - - - - -
21/09:00pm 11.5 S 20 29 1014.3 - 17.4 Recent precip. - - - - - -
21/08:30pm 12.0 S 23 35 1014.2 - 17.4 - - - - - - -
21/08:04pm 12.5 SSW 24 34 1013.4 - 17.2 - - - - - - -
21/08:00pm 12.7 SSW 24 32 1013.3 - 17.2 - - - - - - -
21/07:30pm 12.0 S 21 31 1012.7 - 17.2 - - - - - - -
21/07:06pm 12.0 S 22 33 1012.1 - 17.2 - - - - - - -
21/07:00pm 12.1 S 19 27 1011.9 - 17.2 - - - - - - -
21/06:30pm 12.7 SSW 24 34 1010.9 - 17.2 - - - - - - -
21/06:02pm 12.7 S 24 35 1010.4 - 17.2 - - - - - - -
21/06:00pm 12.7 S 25 34 1010.4 - 17.2 - - - - - - -
21/05:30pm 12.3 S 22 32 1010.0 - 17.2 - - - - - - -
21/05:02pm 12.1 S 23 33 1008.8 - 17.2 - - - - - - -
21/05:00pm 12.1 S 24 33 1008.7 - 17.2 - - - - - - -
21/04:30pm 12.0 SSW 27 37 1007.8 - 17.2 - - - - - - -
21/04:00pm 12.2 SSW 28 41 1007.5 - 17.2 - - - - - - -
21/03:37pm 12.0 SSW 27 37 1007.2 - 17.0 - - - - - - -
21/03:30pm 12.6 SSW 28 37 1006.7 - 17.0 - - - - - - -
21/03:00pm 12.1 SSW 23 33 1006.7 - 17.0 Recent precip. - - - - - -
21/02:30pm 12.3 SSW 23 35 1006.2 - 16.8 - - - - - - -
21/02:00pm 13.0 SSW 21 32 1006.0 - 16.6 - - - - - - -
21/01:30pm 12.5 S 19 25 1005.2 - 16.2 - - - - - - -
21/01:08pm 12.4 S 19 29 1005.3 - 16.2 - - - - - - -
21/01:00pm 12.0 S 21 29 1005.6 - 16.2 - - - - - - -
21/12:54pm 12.7 S 18 21 1005.4 - 16.0 - - - - - - -
21/12:30pm 13.0 S 5 7 1006.0 - 14.4 - - - - - - -

Other Formats:

Comma delimited format used in spreadsheet applications
http://www.bom.gov.au/fwo/IDW60701/IDW60701.94600.axf

JavaScript Object Notation format (JSON) in row-major order
http://www.bom.gov.au/fwo/IDW60701/IDW60701.94600.json